createdAt,value
2018-04-12T00:00:36.847Z,2.17
2018-04-12T00:03:05.877Z,1.50
2018-04-12T00:05:34.148Z,2.33
2018-04-12T00:08:04.379Z,1.57
2018-04-12T00:10:31.879Z,1.67
2018-04-12T00:13:00.329Z,2.83
2018-04-12T00:15:27.851Z,2.93
2018-04-12T00:17:56.107Z,1.80
2018-04-12T00:20:25.584Z,1.93
2018-04-12T00:22:53.083Z,1.90
2018-04-12T00:25:21.356Z,2.03
2018-04-12T00:27:49.659Z,1.87
2018-04-12T00:30:17.177Z,1.87
2018-04-12T00:32:44.706Z,2.20
2018-04-12T00:35:12.214Z,2.00
2018-04-12T00:37:40.477Z,1.90
2018-04-12T00:40:07.995Z,1.57
2018-04-12T00:42:35.496Z,2.10
2018-04-12T00:45:03.808Z,1.83
2018-04-12T00:47:31.321Z,2.07
2018-04-12T00:49:59.595Z,1.90
2018-04-12T00:52:27.123Z,2.20
2018-04-12T00:54:54.628Z,2.57
2018-04-12T00:57:22.929Z,2.10
2018-04-12T00:59:50.428Z,1.80
2018-04-12T01:02:17.941Z,1.60
2018-04-12T01:04:45.463Z,2.23
2018-04-12T01:07:13.735Z,2.40
2018-04-12T01:09:41.250Z,2.23
2018-04-12T01:12:08.781Z,1.63
2018-04-12T01:14:36.284Z,1.83
2018-04-12T01:17:03.792Z,1.77
2018-04-12T01:19:31.323Z,2.17
2018-04-12T01:21:58.824Z,2.60
2018-04-12T01:24:28.321Z,2.40
2018-04-12T01:26:55.825Z,2.80
2018-04-12T01:29:24.867Z,2.33
2018-04-12T01:31:53.327Z,2.90
2018-04-12T01:34:21.601Z,2.27
2018-04-12T01:36:49.888Z,2.40
2018-04-12T01:39:17.387Z,2.03
2018-04-12T01:41:44.933Z,2.47
2018-04-12T01:44:12.436Z,2.80
2018-04-12T01:46:41.647Z,2.27
2018-04-12T01:49:09.948Z,2.40
2018-04-12T01:51:37.441Z,1.97
2018-04-12T01:54:04.970Z,2.57
2018-04-12T01:56:32.472Z,2.30
2018-04-12T01:59:00.953Z,2.00
2018-04-12T02:01:28.480Z,2.20
2018-04-12T02:03:55.983Z,2.17
2018-04-12T02:06:24.278Z,2.10
2018-04-12T02:08:52.746Z,2.30
2018-04-12T02:11:21.042Z,1.90
2018-04-12T02:13:48.542Z,2.27
2018-04-12T02:16:16.048Z,2.13
2018-04-12T02:18:43.579Z,2.70
2018-04-12T02:21:11.853Z,2.40
2018-04-12T02:23:40.139Z,2.33
2018-04-12T02:26:07.647Z,2.40
2018-04-12T02:28:35.148Z,2.03
2018-04-12T02:31:03.432Z,2.03
2018-04-12T02:33:31.703Z,2.53
2018-04-12T02:35:59.999Z,2.70
2018-04-12T02:38:27.499Z,2.27
2018-04-12T02:40:55.032Z,2.60
2018-04-12T02:43:22.536Z,2.90
2018-04-12T02:45:50.807Z,2.20
2018-04-12T02:48:18.323Z,2.90
2018-04-12T02:50:45.839Z,2.77
2018-04-12T02:53:16.077Z,2.90
2018-04-12T02:55:43.588Z,2.37
2018-04-12T02:58:11.122Z,2.37
2018-04-12T03:00:38.627Z,2.50
2018-04-12T03:03:06.897Z,2.57
2018-04-12T03:05:35.189Z,2.10
2018-04-12T03:08:02.699Z,2.97
2018-04-12T03:10:30.227Z,2.60
2018-04-12T03:12:57.755Z,2.60
2018-04-12T03:15:26.045Z,3.33
2018-04-12T03:17:53.546Z,2.90
2018-04-12T03:20:21.054Z,2.77
2018-04-12T03:22:48.568Z,3.30
2018-04-12T03:25:16.074Z,2.43
2018-04-12T03:27:43.601Z,2.97
2018-04-12T03:30:11.099Z,2.20
2018-04-12T03:32:38.617Z,2.57
2018-04-12T03:35:06.883Z,2.90
2018-04-12T03:37:35.343Z,2.70
2018-04-12T03:40:02.876Z,2.70
2018-04-12T03:42:30.366Z,2.87
2018-04-12T03:44:59.623Z,2.87
2018-04-12T03:47:27.125Z,2.97
2018-04-12T03:49:54.648Z,2.97
2018-04-12T03:52:22.163Z,2.97
2018-04-12T03:54:50.432Z,2.60
2018-04-12T03:57:18.730Z,2.90
2018-04-12T03:59:46.260Z,3.27
2018-04-12T04:02:13.784Z,3.23
2018-04-12T04:04:41.288Z,2.97
2018-04-12T04:07:11.541Z,2.47
2018-04-12T04:09:39.053Z,3.10
2018-04-12T04:12:07.370Z,2.90
2018-04-12T04:18:04.316Z,2.87
2018-04-12T04:20:43.814Z,3.20
2018-04-12T04:23:11.335Z,2.80
2018-04-12T04:25:38.834Z,3.03
2018-04-12T04:28:08.311Z,2.63
2018-04-12T04:30:35.816Z,3.40
2018-04-12T04:33:04.088Z,2.83
2018-04-12T04:35:32.393Z,3.30
2018-04-12T04:37:59.891Z,3.27
2018-04-12T04:40:27.420Z,3.20
2018-04-12T04:42:54.938Z,3.10
2018-04-12T04:45:23.221Z,3.30
2018-04-12T04:47:51.495Z,3.30
2018-04-12T04:50:19.790Z,3.70
2018-04-12T04:52:47.281Z,3.40
2018-04-12T04:55:14.786Z,2.93
2018-04-12T04:57:42.300Z,3.03
2018-04-12T05:00:09.812Z,3.20
2018-04-12T05:02:38.299Z,3.70
2018-04-12T05:05:06.777Z,3.13
2018-04-12T05:07:34.309Z,3.00
2018-04-12T05:10:02.575Z,3.23
2018-04-12T05:12:31.179Z,3.17
2018-04-12T05:14:58.693Z,3.70
2018-04-12T05:17:26.191Z,3.63
2018-04-12T05:19:54.484Z,3.10
2018-04-12T05:22:21.979Z,3.10
2018-04-12T05:24:49.500Z,3.13
2018-04-12T05:27:16.994Z,2.80
2018-04-12T05:29:44.720Z,2.73
2018-04-12T05:32:12.312Z,3.50
2018-04-12T05:34:40.735Z,2.60
2018-04-12T05:37:08.403Z,2.70
2018-04-12T05:39:36.385Z,2.73
2018-04-12T05:42:04.252Z,2.80
2018-04-12T05:44:32.986Z,2.73
2018-04-12T05:47:01.672Z,2.80
2018-04-12T05:49:30.254Z,2.50
2018-04-12T05:51:58.993Z,2.50
2018-04-12T05:54:26.825Z,2.63
2018-04-12T05:56:54.619Z,2.77
2018-04-12T05:59:22.172Z,3.30
2018-04-12T06:01:51.663Z,2.93
2018-04-12T06:04:19.170Z,2.33
2018-04-12T06:06:46.675Z,3.00
2018-04-12T06:09:14.199Z,2.53
2018-04-12T06:11:41.744Z,2.50
2018-04-12T06:14:09.281Z,4.27
2018-04-12T06:16:36.798Z,25.43
2018-04-12T06:19:07.032Z,30.90
2018-04-12T06:21:34.548Z,47.30
2018-04-12T06:24:03.584Z,55.50
2018-04-12T06:26:33.110Z,49.80
2018-04-12T06:29:00.649Z,52.60
2018-04-12T06:31:28.147Z,45.17
2018-04-12T06:33:55.695Z,47.17
2018-04-12T06:36:23.215Z,46.77
2018-04-12T06:38:50.719Z,39.23
2018-04-12T06:41:18.275Z,37.17
2018-04-12T06:43:45.792Z,34.03
2018-04-12T06:46:13.336Z,39.33
2018-04-12T06:48:41.634Z,30.87
2018-04-12T06:51:09.164Z,30.03
2018-04-12T06:53:37.466Z,29.17
2018-04-12T06:56:04.992Z,27.80
2018-04-12T06:58:33.279Z,29.70
2018-04-12T07:01:00.785Z,28.40
2018-04-12T07:03:28.315Z,28.20
2018-04-12T07:05:55.858Z,23.10
2018-04-12T07:08:24.135Z,24.50
2018-04-12T07:10:52.621Z,22.00
2018-04-12T07:13:20.132Z,21.20
2018-04-12T07:15:48.439Z,21.33
2018-04-12T07:18:15.964Z,24.10
2018-04-12T07:20:44.260Z,19.63
2018-04-12T07:23:12.533Z,19.13
2018-04-12T07:25:40.840Z,19.93
2018-04-12T07:28:08.353Z,20.23
2018-04-12T07:30:35.901Z,16.70
2018-04-12T07:33:03.404Z,22.23
2018-04-12T07:35:30.917Z,18.77
2018-04-12T07:37:59.951Z,19.63
2018-04-12T07:40:28.411Z,17.87
2018-04-12T07:42:56.716Z,17.40
2018-04-12T07:45:24.217Z,17.70
2018-04-12T07:47:52.508Z,16.43
2018-04-12T07:50:20.795Z,14.40
2018-04-12T07:52:49.060Z,16.53
2018-04-12T07:55:17.388Z,16.07
2018-04-12T07:57:44.903Z,15.13
2018-04-12T08:00:13.203Z,16.70
2018-04-12T08:02:40.712Z,14.13
2018-04-12T08:05:10.708Z,15.10
2018-04-12T08:07:38.222Z,14.13
2018-04-12T08:10:05.731Z,14.13
2018-04-12T08:12:33.267Z,14.57
2018-04-12T08:15:00.785Z,15.00
2018-04-12T08:17:29.312Z,15.33
2018-04-12T08:19:56.815Z,12.30
2018-04-12T08:22:25.136Z,13.07
2018-04-12T08:24:53.599Z,11.20
2018-04-12T08:27:21.103Z,10.87
2018-04-12T08:29:48.651Z,11.13
2018-04-12T08:32:16.156Z,10.83
2018-04-12T08:34:43.675Z,11.67
2018-04-12T08:37:12.720Z,9.57
2018-04-12T08:39:40.233Z,12.33
2018-04-12T08:42:07.738Z,10.20
2018-04-12T08:44:35.260Z,11.33
2018-04-12T08:47:03.556Z,10.13
2018-04-12T08:49:31.089Z,11.23
2018-04-12T08:51:59.369Z,9.10
2018-04-12T08:54:27.669Z,10.73
2018-04-12T08:56:55.176Z,8.37
2018-04-12T08:59:23.632Z,9.43
2018-04-12T09:01:51.149Z,9.87
2018-04-12T09:04:19.411Z,9.37
2018-04-12T09:06:47.714Z,11.37
2018-04-12T09:09:15.220Z,8.90
2018-04-12T09:11:42.752Z,9.00
2018-04-12T09:14:11.213Z,8.60
2018-04-12T09:16:38.719Z,8.40
2018-04-12T09:19:09.004Z,7.77
2018-04-12T09:21:36.531Z,8.87
2018-04-12T09:24:04.831Z,9.80
2018-04-12T09:26:32.331Z,9.17
2018-04-12T09:29:00.846Z,8.50
2018-04-12T09:31:28.339Z,7.80
2018-04-12T09:33:55.857Z,7.30
2018-04-12T09:36:26.105Z,7.80
2018-04-12T09:38:53.608Z,8.37
2018-04-12T09:41:21.200Z,7.37
2018-04-12T09:43:48.700Z,7.13
2018-04-12T09:46:18.176Z,8.13
2018-04-12T09:48:45.683Z,7.77
2018-04-12T09:51:13.187Z,8.10
2018-04-12T09:53:40.712Z,6.30
2018-04-12T09:56:09.351Z,7.60
2018-04-12T09:58:38.839Z,9.13
2018-04-12T10:01:12.289Z,8.30
2018-04-12T10:03:44.376Z,7.53
2018-04-12T10:06:17.673Z,7.00
2018-04-12T10:11:43.911Z,6.80
2018-04-12T10:14:12.222Z,8.90
2018-04-12T10:16:39.754Z,7.90
2018-04-12T10:19:08.241Z,7.17
2018-04-12T10:21:35.772Z,6.20
2018-04-12T10:24:04.063Z,7.00
2018-04-12T10:26:31.588Z,6.10
2018-04-12T10:28:59.095Z,6.03
2018-04-12T10:31:26.602Z,5.90
2018-04-12T10:33:54.131Z,7.00
2018-04-12T10:36:21.636Z,6.57
2018-04-12T10:38:49.932Z,5.07
2018-04-12T10:41:18.400Z,7.07
2018-04-12T10:43:45.896Z,5.17
2018-04-12T10:46:13.460Z,6.20
2018-04-12T10:48:40.965Z,6.40
2018-04-12T10:51:09.266Z,7.33
2018-04-12T10:53:36.825Z,6.17
2018-04-12T10:56:04.359Z,5.37
2018-04-12T10:58:32.618Z,5.53
2018-04-12T11:01:00.908Z,7.13
2018-04-12T11:03:29.242Z,5.30
2018-04-12T11:05:56.716Z,6.60
2018-04-12T11:08:24.240Z,5.73
2018-04-12T11:10:51.739Z,5.63
2018-04-12T11:13:20.062Z,5.50
2018-04-12T11:15:47.567Z,5.90
2018-04-12T11:18:15.865Z,4.93
2018-04-12T11:20:44.153Z,6.10
2018-04-12T11:23:11.735Z,6.73
2018-04-12T11:25:39.243Z,5.40
2018-04-12T11:28:07.503Z,5.60
2018-04-12T11:30:35.029Z,5.87
2018-04-12T11:33:02.555Z,5.80
2018-04-12T11:35:30.105Z,5.90
2018-04-12T11:37:57.609Z,5.53
2018-04-12T11:40:27.077Z,5.33
2018-04-12T11:42:54.603Z,5.90
2018-04-12T11:45:22.872Z,5.17
2018-04-12T11:47:50.430Z,5.20
2018-04-12T11:50:18.717Z,5.30
2018-04-12T11:52:47.027Z,5.13
2018-04-12T11:55:14.575Z,5.83
2018-04-12T11:57:42.103Z,5.47
2018-04-12T12:00:09.600Z,5.53
2018-04-12T12:02:37.116Z,4.50
2018-04-12T12:05:04.647Z,4.57
2018-04-12T12:07:32.146Z,5.80
2018-04-12T12:10:00.444Z,5.50
2018-04-12T12:12:27.982Z,5.07
2018-04-12T12:14:56.266Z,4.70
2018-04-12T12:17:23.779Z,5.60
2018-04-12T12:19:51.283Z,5.07
2018-04-12T12:22:18.808Z,5.30
2018-04-12T12:24:47.071Z,5.57
2018-04-12T12:27:14.583Z,4.90
2018-04-12T12:29:42.079Z,4.90
2018-04-12T12:32:09.601Z,4.60
2018-04-12T12:34:37.118Z,5.20
2018-04-12T12:37:05.392Z,4.43
2018-04-12T12:39:33.688Z,4.90
2018-04-12T12:42:01.188Z,5.20
2018-04-12T12:44:28.713Z,5.07
2018-04-12T12:46:56.208Z,4.77
2018-04-12T12:49:23.728Z,4.17
2018-04-12T12:51:51.223Z,4.37
2018-04-12T12:54:18.716Z,6.50
2018-04-12T12:56:47.011Z,5.00
2018-04-12T12:59:14.516Z,5.20
2018-04-12T13:01:42.039Z,4.60
2018-04-12T13:04:10.511Z,5.10
2018-04-12T13:06:38.040Z,5.07
2018-04-12T13:09:06.317Z,4.60
2018-04-12T13:11:34.587Z,4.20
2018-04-12T13:14:02.867Z,3.90
2018-04-12T13:16:31.155Z,4.53
2018-04-12T13:18:59.439Z,4.47
2018-04-12T13:21:27.896Z,4.40
2018-04-12T13:23:56.439Z,4.47
2018-04-12T13:26:23.948Z,4.50
2018-04-12T13:28:51.456Z,4.60
2018-04-12T13:31:19.915Z,4.30
2018-04-12T13:33:47.431Z,4.97
2018-04-12T13:36:15.715Z,4.67
2018-04-12T13:38:44.043Z,4.50
2018-04-12T13:41:11.568Z,4.30
2018-04-12T13:43:39.073Z,4.60
2018-04-12T13:46:09.037Z,4.57
2018-04-12T13:48:36.563Z,5.07
2018-04-12T13:51:04.837Z,4.07
2018-04-12T13:53:34.093Z,3.40
2018-04-12T13:56:01.585Z,4.87
2018-04-12T13:58:29.108Z,4.40
2018-04-12T14:00:56.604Z,4.03
2018-04-12T14:03:24.913Z,4.27
2018-04-12T14:05:52.418Z,5.17
2018-04-12T14:08:20.680Z,4.13
2018-04-12T14:10:48.217Z,4.20
2018-04-12T14:13:15.725Z,4.03
2018-04-12T14:15:44.016Z,4.03
2018-04-12T14:18:11.521Z,4.00
2018-04-12T14:20:39.048Z,3.80
2018-04-12T14:23:06.567Z,3.70
2018-04-12T14:25:34.062Z,4.10
2018-04-12T14:28:01.627Z,3.77
2018-04-12T14:30:29.138Z,4.97
2018-04-12T14:32:57.419Z,3.73
2018-04-12T14:35:26.698Z,4.40
2018-04-12T14:37:55.145Z,4.40
2018-04-12T14:40:22.668Z,4.70
2018-04-12T14:42:50.203Z,3.90
2018-04-12T14:45:17.735Z,4.30
2018-04-12T14:47:45.240Z,3.83
2018-04-12T14:50:13.516Z,4.20
2018-04-12T14:52:41.800Z,4.40
2018-04-12T14:55:10.256Z,3.43
2018-04-12T14:57:38.609Z,3.90
2018-04-12T15:00:06.129Z,4.20
2018-04-12T15:02:33.654Z,4.13
2018-04-12T15:05:01.920Z,3.70
2018-04-12T15:07:30.192Z,3.53
2018-04-12T15:09:58.484Z,3.83
2018-04-12T15:12:26.747Z,4.13
2018-04-12T15:14:55.053Z,4.07
2018-04-12T15:17:22.559Z,3.63
2018-04-12T15:19:50.079Z,3.93
2018-04-12T15:22:17.592Z,3.63
2018-04-12T15:24:45.874Z,4.00
2018-04-12T15:27:14.165Z,4.67
2018-04-12T15:29:41.698Z,3.40
2018-04-12T15:32:10.027Z,3.63
2018-04-12T15:34:37.515Z,3.97
2018-04-12T15:37:05.043Z,3.53
2018-04-12T15:39:32.615Z,3.23
2018-04-12T15:42:00.110Z,3.40
2018-04-12T15:44:30.347Z,3.33
2018-04-12T15:46:57.847Z,3.40
2018-04-12T15:49:25.367Z,3.90
2018-04-12T15:51:52.892Z,3.60
2018-04-12T15:54:20.416Z,3.70
2018-04-12T15:56:47.930Z,3.63
2018-04-12T15:59:15.428Z,3.37
2018-04-12T16:01:42.958Z,3.93
2018-04-12T16:04:10.451Z,3.80
2018-04-12T16:06:39.940Z,3.10
2018-04-12T16:09:07.450Z,3.40
2018-04-12T16:11:35.747Z,2.90
2018-04-12T16:14:03.252Z,3.20
2018-04-12T16:16:31.737Z,3.37
2018-04-12T16:19:00.052Z,3.87
2018-04-12T16:21:27.576Z,4.23
2018-04-12T16:23:55.874Z,2.60
2018-04-12T16:26:24.138Z,3.30
2018-04-12T16:28:52.443Z,3.47
2018-04-12T16:31:19.943Z,3.77
2018-04-12T16:33:47.455Z,2.93
2018-04-12T16:36:14.972Z,3.50
2018-04-12T16:38:43.979Z,3.37
2018-04-12T16:41:12.260Z,3.20
2018-04-12T16:43:40.531Z,3.40
2018-04-12T16:46:08.831Z,3.63
2018-04-12T16:48:36.346Z,3.23
2018-04-12T16:51:05.408Z,3.27
2018-04-12T16:53:32.912Z,3.40
2018-04-12T16:56:00.440Z,3.60
2018-04-12T16:58:29.916Z,3.27
2018-04-12T17:00:57.424Z,3.20
2018-04-12T17:03:24.984Z,2.97
2018-04-12T17:05:53.251Z,3.10
2018-04-12T17:08:21.520Z,2.77
2018-04-12T17:10:49.040Z,3.37
2018-04-12T17:13:16.536Z,3.40
2018-04-12T17:15:45.563Z,3.50
2018-04-12T17:18:13.085Z,3.40
2018-04-12T17:20:42.116Z,2.97
2018-04-12T17:23:10.584Z,3.40
2018-04-12T17:25:38.876Z,3.33
2018-04-12T17:28:07.276Z,2.80
2018-04-12T17:30:34.771Z,3.57
2018-04-12T17:33:03.791Z,2.97
2018-04-12T17:35:31.318Z,2.60
2018-04-12T17:37:58.876Z,4.27
2018-04-12T17:40:26.382Z,3.27
2018-04-12T17:42:53.891Z,3.03
2018-04-12T17:45:21.420Z,2.63
2018-04-12T17:47:48.919Z,3.63
2018-04-12T17:50:17.255Z,3.40
2018-04-12T17:52:44.770Z,2.80
2018-04-12T17:55:12.268Z,3.03
2018-04-12T17:57:39.789Z,3.17
2018-04-12T18:00:07.283Z,3.30
2018-04-12T18:02:34.816Z,3.03
2018-04-12T18:05:02.321Z,2.87
2018-04-12T18:07:31.603Z,3.30
2018-04-12T18:09:59.114Z,2.80
2018-04-12T18:12:26.635Z,3.20
2018-04-12T18:14:54.946Z,4.10
2018-04-12T18:17:22.445Z,2.93
2018-04-12T18:19:49.984Z,2.80
2018-04-12T18:22:18.463Z,3.40
2018-04-12T18:24:45.980Z,2.90
2018-04-12T18:27:14.244Z,2.50
2018-04-12T18:29:41.769Z,2.77
2018-04-12T18:32:09.271Z,2.70
2018-04-12T18:34:37.535Z,2.50
2018-04-12T18:37:05.069Z,2.80
2018-04-12T18:39:32.579Z,3.10
2018-04-12T18:42:00.107Z,3.00
2018-04-12T18:44:27.608Z,2.87
2018-04-12T18:46:55.156Z,2.97
2018-04-12T18:49:22.682Z,2.67
2018-04-12T18:51:50.185Z,2.60
2018-04-12T18:54:17.703Z,2.60
2018-04-12T18:56:45.976Z,2.63
2018-04-12T18:59:14.334Z,2.67
2018-04-12T19:01:41.803Z,2.93
2018-04-12T19:04:11.260Z,2.80
2018-04-12T19:06:38.772Z,2.70
2018-04-12T19:09:07.047Z,2.40
2018-04-12T19:11:34.590Z,3.33
2018-04-12T19:14:02.096Z,3.50
2018-04-12T19:16:29.624Z,3.23
2018-04-12T19:18:57.897Z,2.73
2018-04-12T19:21:26.183Z,3.43
2018-04-12T19:23:54.665Z,3.20
2018-04-12T19:26:22.195Z,3.70
2018-04-12T19:28:49.732Z,3.93
2018-04-12T19:31:19.183Z,4.30
2018-04-12T19:33:46.714Z,3.60
2018-04-12T19:36:14.991Z,3.27
2018-04-12T19:38:42.516Z,3.73
2018-04-12T19:41:10.957Z,3.27
2018-04-12T19:43:38.477Z,2.87
2018-04-12T19:46:07.721Z,3.30
2018-04-12T19:48:35.241Z,3.73
2018-04-12T19:51:03.558Z,3.10
2018-04-12T19:53:31.321Z,2.30
2018-04-12T19:55:59.186Z,2.57
2018-04-12T19:58:27.051Z,3.20
2018-04-12T20:00:54.917Z,2.17
2018-04-12T20:03:22.827Z,2.33
2018-04-12T20:05:50.361Z,2.97
2018-04-12T20:08:18.206Z,2.67
2018-04-12T20:10:45.808Z,3.07
2018-04-12T20:13:13.552Z,2.40
2018-04-12T20:15:42.825Z,2.90
2018-04-12T20:18:11.437Z,4.00
2018-04-12T20:20:39.063Z,2.40
2018-04-12T20:23:06.760Z,2.80
2018-04-12T20:25:34.524Z,2.77
2018-04-12T20:28:03.120Z,2.53
2018-04-12T20:30:30.939Z,2.70
2018-04-12T20:32:58.688Z,2.87
2018-04-12T20:35:26.499Z,3.37
2018-04-12T20:37:54.331Z,2.83
2018-04-12T20:40:22.197Z,2.70
2018-04-12T20:42:50.064Z,2.57
2018-04-12T20:45:17.824Z,2.40
2018-04-12T20:47:45.587Z,3.00
2018-04-12T20:50:13.477Z,2.70
2018-04-12T20:52:42.137Z,2.50
2018-04-12T20:55:11.644Z,3.37
2018-04-12T20:57:39.403Z,3.10
2018-04-12T21:00:07.269Z,2.17
2018-04-12T21:02:35.237Z,2.77
2018-04-12T21:05:02.788Z,2.27
2018-04-12T21:07:32.262Z,3.00
2018-04-12T21:10:00.575Z,3.43
2018-04-12T21:12:30.079Z,2.33
2018-04-12T21:14:57.583Z,2.63
2018-04-12T21:17:25.913Z,2.57
2018-04-12T21:19:53.441Z,2.93
2018-04-12T21:22:21.731Z,3.20
2018-04-12T21:24:49.235Z,2.23
2018-04-12T21:27:16.732Z,3.03
2018-04-12T21:29:45.024Z,3.13
2018-04-12T21:32:12.527Z,2.77
2018-04-12T21:34:40.049Z,2.47
2018-04-12T21:37:07.685Z,2.63
2018-04-12T21:39:35.264Z,2.50
2018-04-12T21:42:03.048Z,2.53
2018-04-12T21:44:30.653Z,2.80
2018-04-12T21:46:58.435Z,3.00
2018-04-12T21:49:26.115Z,3.50
2018-04-12T21:51:54.028Z,2.77
2018-04-12T21:54:21.739Z,2.90
2018-04-12T21:56:49.709Z,3.00
2018-04-12T21:59:17.473Z,2.67
2018-04-12T22:01:45.259Z,3.20
2018-04-12T22:04:12.999Z,3.43
2018-04-12T22:06:40.678Z,2.40
2018-04-12T22:09:08.316Z,2.83
2018-04-12T22:11:36.184Z,2.93
2018-04-12T22:14:03.979Z,2.50
2018-04-12T22:16:32.735Z,2.77
2018-04-12T22:19:00.642Z,2.67
2018-04-12T22:21:29.182Z,2.83
2018-04-12T22:23:57.048Z,3.20
2018-04-12T22:26:24.912Z,2.87
2018-04-12T22:28:53.595Z,2.50
2018-04-12T22:31:21.407Z,2.73
2018-04-12T22:33:49.064Z,3.20
2018-04-12T22:36:17.598Z,3.43
2018-04-12T22:38:45.468Z,3.70
2018-04-12T22:41:14.185Z,3.37
2018-04-12T22:43:41.816Z,2.90
2018-04-12T22:46:09.390Z,3.30
2018-04-12T22:48:36.878Z,2.97
2018-04-12T22:51:04.386Z,3.10
2018-04-12T22:53:31.929Z,3.60
2018-04-12T22:55:59.471Z,3.47
2018-04-12T22:58:28.987Z,3.10
2018-04-12T23:00:56.535Z,3.43
2018-04-12T23:03:24.828Z,3.63
2018-04-12T23:05:54.283Z,3.17
2018-04-12T23:08:22.571Z,3.00
2018-04-12T23:10:50.843Z,3.30
2018-04-12T23:13:18.378Z,2.60
2018-04-12T23:15:45.915Z,3.23
2018-04-12T23:18:13.432Z,3.30
2018-04-12T23:20:41.715Z,3.67
2018-04-12T23:23:09.985Z,2.40
2018-04-12T23:25:38.298Z,3.20
2018-04-12T23:28:05.813Z,3.70
2018-04-12T23:30:34.098Z,2.30
2018-04-12T23:33:02.434Z,2.83
2018-04-12T23:35:29.935Z,2.50
2018-04-12T23:37:57.480Z,3.10
2018-04-12T23:40:25.740Z,2.93
2018-04-12T23:42:54.009Z,3.57
2018-04-12T23:45:22.309Z,2.40
2018-04-12T23:47:50.577Z,2.57
2018-04-12T23:50:18.871Z,2.87
2018-04-12T23:52:47.333Z,3.00
2018-04-12T23:55:15.631Z,2.80
2018-04-12T23:57:43.140Z,3.10
